createdAt,value
2022-11-11T00:01:15.549Z,14.30
2022-11-11T00:04:00.930Z,14.65
2022-11-11T00:06:47.663Z,14.40
2022-11-11T00:09:33.285Z,14.15
2022-11-11T00:12:19.191Z,15.45
2022-11-11T00:15:05.483Z,14.75
2022-11-11T00:18:09.259Z,14.82
2022-11-11T00:21:12.952Z,15.57
2022-11-11T00:24:16.961Z,15.55
2022-11-11T00:27:03.181Z,14.85
2022-11-11T00:29:48.401Z,16.58
2022-11-11T00:32:34.067Z,16.38
2022-11-11T00:35:38.095Z,16.05
2022-11-11T00:38:42.387Z,15.38
2022-11-11T00:41:27.832Z,15.40
2022-11-11T00:44:13.539Z,14.98
2022-11-11T00:47:17.495Z,16.10
2022-11-11T00:50:26.500Z,15.23
2022-11-11T00:53:14.486Z,15.27
2022-11-11T00:56:00.132Z,15.95
2022-11-11T00:58:45.603Z,16.05
2022-11-11T01:01:31.241Z,16.85
2022-11-11T01:04:17.145Z,16.02
2022-11-11T01:07:02.690Z,16.48
2022-11-11T01:09:48.108Z,17.67
2022-11-11T01:12:33.534Z,17.55
2022-11-11T01:15:19.113Z,17.48
2022-11-11T01:18:05.201Z,17.98
2022-11-11T01:21:05.759Z,17.70
2022-11-11T01:23:53.430Z,17.48
2022-11-11T01:26:38.793Z,18.42
2022-11-11T01:29:24.171Z,18.05
2022-11-11T01:32:09.590Z,18.42
2022-11-11T01:34:54.961Z,18.60
2022-11-11T01:37:40.252Z,17.95
2022-11-11T01:40:25.882Z,18.35
2022-11-11T01:43:11.377Z,16.02
2022-11-11T01:46:03.720Z,17.38
2022-11-11T01:49:12.496Z,18.50
2022-11-11T01:52:22.960Z,16.63
2022-11-11T01:55:15.451Z,16.38
2022-11-11T01:58:06.298Z,17.13
2022-11-11T02:00:51.744Z,15.95
2022-11-11T02:03:40.859Z,16.73
2022-11-11T02:06:28.586Z,16.45
2022-11-11T02:09:14.325Z,18.23
2022-11-11T02:12:24.337Z,16.45
2022-11-11T02:15:10.125Z,16.73
2022-11-11T02:17:55.327Z,16.25
2022-11-11T02:20:45.183Z,17.42
2022-11-11T02:26:19.896Z,16.38
2022-11-11T02:29:12.694Z,18.33
2022-11-11T02:31:58.521Z,18.17
2022-11-11T02:34:44.233Z,19.60
2022-11-11T02:37:29.785Z,18.38
2022-11-11T02:40:23.660Z,18.20
2022-11-11T02:43:09.081Z,18.40
2022-11-11T02:45:54.730Z,18.80
2022-11-11T02:48:40.575Z,19.50
2022-11-11T02:51:25.879Z,18.65
2022-11-11T02:54:11.564Z,19.00
2022-11-11T02:57:09.425Z,18.80
2022-11-11T02:59:57.866Z,19.90
2022-11-11T03:02:43.577Z,18.55
2022-11-11T03:05:29.016Z,20.80
2022-11-11T03:08:14.240Z,19.60
2022-11-11T03:10:59.344Z,20.27
2022-11-11T03:13:44.982Z,20.10
2022-11-11T03:16:49.311Z,20.77
2022-11-11T03:19:35.545Z,20.00
2022-11-11T03:25:38.690Z,19.75
2022-11-11T03:28:27.062Z,18.38
2022-11-11T03:31:12.333Z,18.90
2022-11-11T03:34:17.772Z,18.45
2022-11-11T03:37:25.728Z,18.25
2022-11-11T03:40:11.538Z,18.42
2022-11-11T03:43:03.873Z,19.05
2022-11-11T03:45:51.311Z,18.63
2022-11-11T03:48:37.045Z,18.48
2022-11-11T03:51:22.374Z,18.67
2022-11-11T03:54:07.753Z,19.05
2022-11-11T03:57:13.451Z,18.73
2022-11-11T03:59:58.693Z,19.67
2022-11-11T04:03:02.226Z,25.15
2022-11-11T04:06:05.734Z,19.05
2022-11-11T04:09:09.932Z,18.92
2022-11-11T04:11:55.011Z,17.67
2022-11-11T04:14:58.858Z,17.88
2022-11-11T04:17:44.788Z,17.48
2022-11-11T04:20:48.824Z,17.38
2022-11-11T04:23:33.903Z,17.55
2022-11-11T04:26:19.530Z,18.60
2022-11-11T04:29:23.858Z,17.67
2022-11-11T04:32:35.654Z,17.98
2022-11-11T04:35:21.242Z,16.75
2022-11-11T04:38:25.082Z,15.45
2022-11-11T04:41:11.302Z,15.43
2022-11-11T04:44:15.206Z,15.48
2022-11-11T04:47:00.467Z,15.18
2022-11-11T04:49:46.260Z,17.00
2022-11-11T04:52:32.095Z,18.30
2022-11-11T04:55:36.846Z,16.88
2022-11-11T04:58:25.155Z,16.60
2022-11-11T05:01:10.854Z,16.75
2022-11-11T05:03:56.173Z,17.02
2022-11-11T05:07:00.225Z,17.35
2022-11-11T05:09:45.731Z,18.20
2022-11-11T05:12:32.581Z,17.42
2022-11-11T05:15:36.339Z,19.45
2022-11-11T05:18:40.472Z,16.75
2022-11-11T05:21:28.255Z,14.57
2022-11-11T05:24:32.479Z,15.55
2022-11-11T05:27:18.227Z,16.08
2022-11-11T05:30:06.293Z,16.25
2022-11-11T05:32:52.180Z,15.68
2022-11-11T05:35:37.502Z,17.52
2022-11-11T05:38:23.061Z,16.95
2022-11-11T05:41:09.720Z,19.40
2022-11-11T05:43:54.910Z,20.98
2022-11-11T05:46:40.335Z,19.45
2022-11-11T05:49:26.228Z,21.40
2022-11-11T05:52:13.830Z,19.42
2022-11-11T05:54:59.460Z,17.80
2022-11-11T05:57:45.184Z,17.85
2022-11-11T06:00:30.334Z,22.00
2022-11-11T06:03:15.893Z,21.42
2022-11-11T06:06:01.315Z,19.80
2022-11-11T06:08:46.781Z,21.02
2022-11-11T06:11:33.177Z,17.42
2022-11-11T06:14:18.938Z,14.02
2022-11-11T06:17:04.456Z,14.85
2022-11-11T06:19:49.757Z,13.77
2022-11-11T06:22:56.032Z,13.00
2022-11-11T06:26:00.038Z,14.75
2022-11-11T06:28:47.292Z,14.50
2022-11-11T06:31:32.801Z,14.50
2022-11-11T06:34:18.235Z,13.25
2022-11-11T06:37:03.611Z,13.70
2022-11-11T06:39:48.974Z,15.35
2022-11-11T06:42:38.195Z,18.38
2022-11-11T06:45:28.439Z,15.77
2022-11-11T06:48:13.786Z,15.05
2022-11-11T06:51:05.093Z,27.45
2022-11-11T06:53:50.506Z,14.02
2022-11-11T06:56:35.741Z,15.20
2022-11-11T06:59:21.037Z,17.38
2022-11-11T07:02:06.743Z,18.58
2022-11-11T07:04:52.104Z,19.30
2022-11-11T07:07:37.337Z,19.83
2022-11-11T07:10:22.897Z,19.60
2022-11-11T07:13:08.641Z,19.33
2022-11-11T07:15:53.872Z,18.10
2022-11-11T07:18:39.233Z,25.05
2022-11-11T07:21:24.441Z,21.83
2022-11-11T07:24:09.979Z,22.38
2022-11-11T07:26:55.386Z,19.13
2022-11-11T07:29:40.826Z,20.20
2022-11-11T07:32:26.185Z,22.17
2022-11-11T07:35:11.638Z,22.75
2022-11-11T07:37:57.057Z,24.35
2022-11-11T07:40:42.373Z,22.80
2022-11-11T07:43:27.677Z,26.38
2022-11-11T07:46:13.035Z,25.65
2022-11-11T07:48:58.509Z,25.00
2022-11-11T07:51:43.883Z,24.65
2022-11-11T07:54:29.106Z,24.02
2022-11-11T07:57:14.764Z,23.77
2022-11-11T07:59:59.970Z,22.30
2022-11-11T08:02:49.354Z,28.63
2022-11-11T08:05:34.731Z,24.45
2022-11-11T08:08:25.706Z,24.52
2022-11-11T08:11:12.189Z,26.88
2022-11-11T08:13:57.790Z,55.00
2022-11-11T08:16:43.068Z,194.55
2022-11-11T08:19:28.474Z,50.78
2022-11-11T08:22:14.088Z,28.58
2022-11-11T08:25:04.406Z,28.77
2022-11-11T08:27:56.694Z,28.38
2022-11-11T08:30:42.450Z,27.30
2022-11-11T08:33:44.024Z,25.60
2022-11-11T08:36:29.834Z,24.38
2022-11-11T08:39:15.267Z,24.67
2022-11-11T08:42:00.685Z,23.33
2022-11-11T08:44:47.125Z,23.35
2022-11-11T08:47:32.552Z,25.05
2022-11-11T08:50:18.597Z,24.20
2022-11-11T08:53:04.154Z,23.45
2022-11-11T08:55:49.606Z,21.83
2022-11-11T08:58:35.378Z,21.88
2022-11-11T09:01:20.884Z,22.88
2022-11-11T09:04:30.079Z,21.13
2022-11-11T09:07:12.527Z,19.95
2022-11-11T09:09:57.732Z,25.63
2022-11-11T09:12:43.077Z,23.30
2022-11-11T09:15:29.593Z,24.20
2022-11-11T09:18:15.073Z,22.20
2022-11-11T09:21:00.901Z,26.00
2022-11-11T09:23:46.018Z,24.90
2022-11-11T09:26:31.424Z,21.75
2022-11-11T09:29:17.521Z,20.98
2022-11-11T09:32:03.057Z,22.15
2022-11-11T09:34:48.305Z,22.67
2022-11-11T09:37:33.750Z,23.67
2022-11-11T09:40:21.781Z,24.65
2022-11-11T09:43:33.132Z,25.13
2022-11-11T09:46:44.562Z,28.92
2022-11-11T09:49:42.400Z,22.25
2022-11-11T09:52:37.392Z,20.45
2022-11-11T09:55:38.670Z,21.08
2022-11-11T09:58:43.746Z,23.70
2022-11-11T10:01:36.753Z,21.83
2022-11-11T10:04:24.840Z,24.45
2022-11-11T10:07:18.408Z,40.28
2022-11-11T10:10:13.557Z,22.35
2022-11-11T10:12:59.913Z,15.20
2022-11-11T10:16:23.923Z,16.25
2022-11-11T10:19:15.650Z,12.07
2022-11-11T10:22:12.757Z,8.35
2022-11-11T10:25:21.073Z,4.22
2022-11-11T10:28:08.146Z,4.40
2022-11-11T10:30:55.657Z,4.97
2022-11-11T10:33:54.830Z,4.90
2022-11-11T10:36:46.405Z,3.88
2022-11-11T10:40:00.903Z,3.92
2022-11-11T10:42:46.037Z,3.85
2022-11-11T10:46:02.712Z,7.38
2022-11-11T10:48:57.392Z,60.15
2022-11-11T10:51:51.769Z,18.90
2022-11-11T10:54:55.264Z,55.80
2022-11-11T10:58:01.937Z,4.95
2022-11-11T11:00:50.510Z,2.60
2022-11-11T11:03:53.805Z,4.38
2022-11-11T11:06:44.352Z,2.38
2022-11-11T11:09:45.841Z,4.30
2022-11-11T11:12:47.169Z,3.25
2022-11-11T11:15:35.862Z,2.10
2022-11-11T11:18:21.423Z,1.50
2022-11-11T11:21:08.643Z,2.75
2022-11-11T11:23:53.924Z,3.80
2022-11-11T11:26:48.614Z,4.88
2022-11-11T11:29:43.122Z,4.03
2022-11-11T11:32:30.927Z,5.70
2022-11-11T11:35:37.784Z,3.38
2022-11-11T11:38:40.927Z,4.07
2022-11-11T11:41:50.286Z,4.88
2022-11-11T11:44:40.294Z,3.10
2022-11-11T11:53:57.163Z,2.75
2022-11-11T11:56:45.875Z,2.92
2022-11-11T11:59:49.724Z,3.30
2022-11-11T12:02:58.385Z,6.57
2022-11-11T12:05:50.682Z,4.20
2022-11-11T12:09:00.873Z,2.10
2022-11-11T12:11:46.274Z,2.80
2022-11-11T12:15:22.752Z,2.53
2022-11-11T12:18:33.582Z,2.08
2022-11-11T12:21:24.558Z,2.25
2022-11-11T12:24:10.033Z,1.83
2022-11-11T12:27:14.184Z,1.40
2022-11-11T12:30:14.305Z,2.55
2022-11-11T12:33:06.328Z,2.08
2022-11-11T12:36:17.907Z,2.30
2022-11-11T12:39:12.514Z,2.45
2022-11-11T12:42:26.782Z,2.28
2022-11-11T12:45:22.068Z,1.88
2022-11-11T12:48:32.749Z,2.05
2022-11-11T12:51:36.748Z,1.30
2022-11-11T12:54:43.514Z,3.17
2022-11-11T12:57:34.713Z,2.05
2022-11-11T13:00:22.214Z,1.42
2022-11-11T13:04:01.673Z,1.33
2022-11-11T13:07:04.347Z,1.60
2022-11-11T13:09:56.434Z,2.00
2022-11-11T13:12:55.481Z,2.00
2022-11-11T13:15:41.099Z,2.00
2022-11-11T13:19:12.101Z,1.73
2022-11-11T13:22:13.088Z,2.03
2022-11-11T13:25:04.238Z,1.70
2022-11-11T13:27:55.400Z,2.30
2022-11-11T13:30:53.010Z,2.72
2022-11-11T13:33:49.174Z,1.88
2022-11-11T13:39:34.572Z,1.80
2022-11-11T13:42:26.556Z,1.70
2022-11-11T13:45:26.870Z,2.17
2022-11-11T13:48:31.421Z,1.83
2022-11-11T13:51:19.928Z,2.10
2022-11-11T13:54:20.317Z,1.70
2022-11-11T13:57:15.529Z,1.98
2022-11-11T14:00:24.667Z,2.10
2022-11-11T14:03:22.880Z,2.45
2022-11-11T14:06:14.584Z,2.53
2022-11-11T14:09:00.302Z,1.92
2022-11-11T14:11:45.725Z,3.10
2022-11-11T14:14:37.231Z,5.07
2022-11-11T14:17:23.214Z,4.43
2022-11-11T14:20:42.074Z,3.03
2022-11-11T14:23:30.685Z,2.53
2022-11-11T14:26:24.382Z,1.88
2022-11-11T14:29:19.664Z,2.22
2022-11-11T14:32:14.202Z,3.15
2022-11-11T14:35:19.994Z,2.97
2022-11-11T14:38:28.359Z,3.35
2022-11-11T14:41:53.537Z,3.28
2022-11-11T14:44:41.154Z,4.95
2022-11-11T14:47:42.119Z,4.57
2022-11-11T14:50:33.324Z,2.33
2022-11-11T14:53:21.002Z,3.80
2022-11-11T14:56:16.592Z,3.80
2022-11-11T14:59:07.528Z,2.28
2022-11-11T15:01:55.239Z,3.53
2022-11-11T15:04:41.418Z,2.20
2022-11-11T15:08:05.566Z,1.40
2022-11-11T15:11:06.342Z,2.97
2022-11-11T15:14:19.073Z,2.80
2022-11-11T15:17:35.888Z,1.58
2022-11-11T15:20:52.906Z,1.80
2022-11-11T15:23:49.398Z,2.40
2022-11-11T15:27:00.925Z,2.58
2022-11-11T15:30:07.864Z,4.30
2022-11-11T15:33:12.159Z,1.90
2022-11-11T15:36:16.310Z,2.75
2022-11-11T15:39:13.071Z,5.50
2022-11-11T15:41:58.832Z,4.63
2022-11-11T15:44:44.678Z,2.30
2022-11-11T15:47:35.787Z,2.00
2022-11-11T15:50:23.948Z,1.90
2022-11-11T15:53:12.418Z,1.50
2022-11-11T15:56:00.650Z,2.13
2022-11-11T15:58:46.125Z,3.13
2022-11-11T16:01:31.919Z,2.88
2022-11-11T16:04:54.073Z,1.50
2022-11-11T16:07:32.117Z,1.73
2022-11-11T16:10:29.777Z,2.00
2022-11-11T16:13:14.977Z,1.77
2022-11-11T16:16:09.324Z,2.20
2022-11-11T16:19:03.581Z,1.70
2022-11-11T16:21:57.927Z,2.33
2022-11-11T16:24:45.873Z,2.20
2022-11-11T16:27:33.422Z,3.70
2022-11-11T16:30:24.793Z,4.13
2022-11-11T16:33:40.735Z,4.82
2022-11-11T16:36:26.666Z,2.05
2022-11-11T16:39:19.338Z,2.90
2022-11-11T16:42:08.207Z,1.90
2022-11-11T16:45:01.295Z,2.78
2022-11-11T16:47:49.247Z,2.38
2022-11-11T16:50:53.219Z,2.78
2022-11-11T16:53:46.833Z,1.67
2022-11-11T16:56:33.940Z,1.27
2022-11-11T16:59:34.326Z,1.85
2022-11-11T17:02:22.467Z,1.90
2022-11-11T17:05:08.630Z,1.30
2022-11-11T17:07:54.493Z,1.20
2022-11-11T17:10:40.717Z,1.00
2022-11-11T17:13:27.376Z,1.50
2022-11-11T17:16:14.110Z,1.75
2022-11-11T17:19:03.991Z,1.92
2022-11-11T17:24:34.762Z,2.60
2022-11-11T17:27:20.006Z,2.65
2022-11-11T17:30:06.368Z,1.60
2022-11-11T17:32:51.839Z,1.48
2022-11-11T17:35:37.293Z,1.30
2022-11-11T17:38:22.621Z,0.80
2022-11-11T17:41:08.175Z,0.90
2022-11-11T17:43:53.888Z,1.15
2022-11-11T17:46:39.209Z,1.30
2022-11-11T17:49:50.021Z,1.90
2022-11-11T17:52:30.404Z,1.60
2022-11-11T17:55:16.026Z,1.52
2022-11-11T17:58:01.748Z,1.23
2022-11-11T18:00:47.023Z,1.40
2022-11-11T18:03:32.394Z,1.58
2022-11-11T18:06:17.892Z,2.20
2022-11-11T18:09:03.206Z,1.70
2022-11-11T18:11:48.590Z,1.10
2022-11-11T18:14:33.929Z,0.90
2022-11-11T18:17:19.594Z,0.90
2022-11-11T18:20:05.218Z,0.95
2022-11-11T18:22:56.864Z,1.30
2022-11-11T18:25:42.886Z,1.55
2022-11-11T18:28:33.514Z,2.47
2022-11-11T18:31:18.902Z,2.15
2022-11-11T18:34:04.518Z,1.60
2022-11-11T18:36:52.412Z,2.22
2022-11-11T18:39:37.854Z,1.98
2022-11-11T18:42:23.160Z,2.30
2022-11-11T18:45:08.992Z,2.92
2022-11-11T18:47:54.453Z,5.88
2022-11-11T18:50:39.781Z,4.00
2022-11-11T18:53:25.758Z,21.77
2022-11-11T18:56:20.173Z,6.75
2022-11-11T18:59:05.634Z,1.80
2022-11-11T19:01:54.747Z,3.03
2022-11-11T19:04:41.031Z,1.70
2022-11-11T19:07:26.460Z,3.13
2022-11-11T19:10:11.861Z,1.40
2022-11-11T19:12:56.874Z,0.60
2022-11-11T19:15:42.102Z,1.50
2022-11-11T19:18:27.464Z,0.57
2022-11-11T19:21:17.399Z,0.50
2022-11-11T19:24:03.715Z,0.60
2022-11-11T19:26:51.062Z,1.83
2022-11-11T19:29:36.225Z,1.60
2022-11-11T19:32:21.585Z,1.75
2022-11-11T19:35:07.400Z,1.30
2022-11-11T19:37:52.511Z,0.50
2022-11-11T19:40:38.009Z,0.40
2022-11-11T19:43:24.869Z,0.47
2022-11-11T19:46:15.731Z,1.00
2022-11-11T19:49:00.957Z,1.00
2022-11-11T19:51:46.294Z,1.40
2022-11-11T19:54:31.686Z,1.27
2022-11-11T19:57:17.066Z,0.98
2022-11-11T20:00:02.476Z,1.20
2022-11-11T20:02:47.789Z,1.60
2022-11-11T20:05:37.376Z,1.73
2022-11-11T20:08:22.536Z,2.25
2022-11-11T20:11:09.384Z,2.75
2022-11-11T20:13:56.011Z,2.08
2022-11-11T20:16:41.274Z,1.90
2022-11-11T20:19:26.483Z,2.15
2022-11-11T20:22:12.082Z,1.83
2022-11-11T20:24:57.647Z,1.55
2022-11-11T20:27:43.233Z,1.33
2022-11-11T20:30:28.601Z,1.33
2022-11-11T20:33:14.346Z,1.40
2022-11-11T20:36:04.530Z,2.90
2022-11-11T20:38:50.107Z,6.68
2022-11-11T20:41:36.211Z,2.90
2022-11-11T20:44:21.862Z,9.23
2022-11-11T20:47:08.562Z,4.43
2022-11-11T20:49:54.209Z,2.72
2022-11-11T20:52:39.522Z,4.15
2022-11-11T20:55:24.846Z,1.70
2022-11-11T20:58:10.223Z,2.35
2022-11-11T21:01:01.633Z,2.00
2022-11-11T21:03:47.021Z,1.60
2022-11-11T21:06:32.636Z,3.17
2022-11-11T21:09:18.107Z,2.78
2022-11-11T21:12:03.916Z,2.65
2022-11-11T21:14:49.247Z,1.95
2022-11-11T21:17:34.798Z,2.00
2022-11-11T21:20:20.570Z,2.25
2022-11-11T21:23:05.829Z,2.50
2022-11-11T21:25:51.161Z,2.50
2022-11-11T21:28:37.958Z,2.20
2022-11-11T21:31:26.741Z,2.25
2022-11-11T21:34:13.003Z,2.25
2022-11-11T21:36:58.692Z,3.70
2022-11-11T21:39:43.997Z,2.50
2022-11-11T21:42:29.414Z,2.13
2022-11-11T21:45:14.805Z,2.00
2022-11-11T21:48:00.221Z,2.22
2022-11-11T21:50:45.610Z,2.38
2022-11-11T21:53:31.099Z,2.40
2022-11-11T21:56:16.687Z,2.30
2022-11-11T21:59:04.701Z,2.75
2022-11-11T22:01:50.056Z,2.33
2022-11-11T22:04:35.484Z,2.65
2022-11-11T22:07:21.530Z,3.00
2022-11-11T22:10:07.363Z,3.22
2022-11-11T22:12:52.489Z,3.08
2022-11-11T22:15:38.584Z,3.05
2022-11-11T22:18:23.986Z,2.55
2022-11-11T22:21:12.430Z,2.80
2022-11-11T22:24:00.372Z,2.72
2022-11-11T22:26:45.887Z,3.00
2022-11-11T22:29:31.553Z,3.17
2022-11-11T22:32:16.856Z,3.10
2022-11-11T22:35:02.200Z,3.13
2022-11-11T22:37:47.481Z,2.78
2022-11-11T22:40:32.872Z,3.03
2022-11-11T22:43:38.115Z,2.70
2022-11-11T22:46:24.945Z,2.80
2022-11-11T22:49:12.241Z,2.55
2022-11-11T22:51:57.335Z,2.53
2022-11-11T22:54:42.726Z,2.33
2022-11-11T22:57:30.826Z,2.58
2022-11-11T23:00:16.626Z,2.28
2022-11-11T23:03:02.654Z,2.83
2022-11-11T23:05:47.769Z,2.28
2022-11-11T23:08:33.165Z,2.75
2022-11-11T23:11:24.099Z,2.90
2022-11-11T23:14:15.767Z,2.65
2022-11-11T23:17:00.761Z,2.05
2022-11-11T23:19:45.886Z,2.10
2022-11-11T23:22:31.426Z,2.20
2022-11-11T23:25:16.780Z,2.50
2022-11-11T23:28:02.060Z,2.20
2022-11-11T23:30:48.005Z,2.20
2022-11-11T23:33:35.068Z,2.20
2022-11-11T23:36:23.229Z,2.55
2022-11-11T23:39:08.551Z,2.38
2022-11-11T23:41:53.847Z,3.00
2022-11-11T23:44:39.054Z,2.30
2022-11-11T23:47:24.494Z,2.30
2022-11-11T23:50:10.055Z,2.00
2022-11-11T23:52:55.164Z,2.92
2022-11-11T23:55:40.740Z,2.03
2022-11-11T23:58:26.730Z,2.10
